sensor_id;sensor_type;location;lat;lon;timestamp;P1;durP1;ratioP1;P2;durP2;ratioP2
59424;SDS011;45231;44.826;20.312;2022-08-19T00:01:17;8.82;;;5.25;;
59424;SDS011;45231;44.826;20.312;2022-08-19T00:03:43;9.93;;;4.70;;
59424;SDS011;45231;44.826;20.312;2022-08-19T00:06:09;8.10;;;4.97;;
59424;SDS011;45231;44.826;20.312;2022-08-19T00:11:01;11.68;;;5.32;;
59424;SDS011;45231;44.826;20.312;2022-08-19T00:15:54;9.15;;;5.25;;
59424;SDS011;45231;44.826;20.312;2022-08-19T00:18:20;8.77;;;5.20;;
59424;SDS011;45231;44.826;20.312;2022-08-19T00:20:46;10.50;;;6.03;;
59424;SDS011;45231;44.826;20.312;2022-08-19T00:23:13;10.68;;;5.28;;
59424;SDS011;45231;44.826;20.312;2022-08-19T00:25:40;9.40;;;5.63;;
59424;SDS011;45231;44.826;20.312;2022-08-19T00:28:06;9.35;;;5.90;;
59424;SDS011;45231;44.826;20.312;2022-08-19T00:30:32;11.65;;;5.72;;
59424;SDS011;45231;44.826;20.312;2022-08-19T00:32:58;9.57;;;5.38;;
59424;SDS011;45231;44.826;20.312;2022-08-19T00:35:24;10.32;;;5.63;;
59424;SDS011;45231;44.826;20.312;2022-08-19T00:37:52;11.25;;;6.07;;
59424;SDS011;45231;44.826;20.312;2022-08-19T00:40:18;10.98;;;5.90;;
59424;SDS011;45231;44.826;20.312;2022-08-19T00:42:44;9.80;;;5.72;;
59424;SDS011;45231;44.826;20.312;2022-08-19T00:45:13;8.10;;;5.45;;
59424;SDS011;45231;44.826;20.312;2022-08-19T00:47:39;8.38;;;5.63;;
59424;SDS011;45231;44.826;20.312;2022-08-19T00:50:06;12.82;;;5.97;;
59424;SDS011;45231;44.826;20.312;2022-08-19T00:52:34;9.30;;;5.80;;
59424;SDS011;45231;44.826;20.312;2022-08-19T00:55:02;11.52;;;5.80;;
59424;SDS011;45231;44.826;20.312;2022-08-19T00:57:30;10.20;;;5.82;;
59424;SDS011;45231;44.826;20.312;2022-08-19T00:59:58;11.80;;;6.60;;
59424;SDS011;45231;44.826;20.312;2022-08-19T01:02:25;11.18;;;6.35;;
59424;SDS011;45231;44.826;20.312;2022-08-19T01:04:52;10.27;;;6.35;;
59424;SDS011;45231;44.826;20.312;2022-08-19T01:07:18;9.93;;;6.43;;
59424;SDS011;45231;44.826;20.312;2022-08-19T01:09:45;9.63;;;6.25;;
59424;SDS011;45231;44.826;20.312;2022-08-19T01:12:11;12.18;;;6.70;;
59424;SDS011;45231;44.826;20.312;2022-08-19T01:14:37;9.80;;;6.82;;
59424;SDS011;45231;44.826;20.312;2022-08-19T01:17:04;12.23;;;7.18;;
59424;SDS011;45231;44.826;20.312;2022-08-19T01:19:35;11.25;;;6.57;;
59424;SDS011;45231;44.826;20.312;2022-08-19T01:22:09;12.13;;;6.32;;
59424;SDS011;45231;44.826;20.312;2022-08-19T01:24:36;10.43;;;6.85;;
59424;SDS011;45231;44.826;20.312;2022-08-19T01:27:06;12.27;;;6.93;;
59424;SDS011;45231;44.826;20.312;2022-08-19T01:29:32;12.23;;;6.82;;
59424;SDS011;45231;44.826;20.312;2022-08-19T01:32:00;9.73;;;7.13;;
59424;SDS011;45231;44.826;20.312;2022-08-19T01:34:26;14.10;;;7.88;;
59424;SDS011;45231;44.826;20.312;2022-08-19T01:36:52;11.07;;;7.82;;
59424;SDS011;45231;44.826;20.312;2022-08-19T01:39:22;11.93;;;8.68;;
59424;SDS011;45231;44.826;20.312;2022-08-19T01:41:49;12.93;;;8.48;;
59424;SDS011;45231;44.826;20.312;2022-08-19T01:44:16;11.80;;;8.60;;
59424;SDS011;45231;44.826;20.312;2022-08-19T01:46:45;12.32;;;8.88;;
59424;SDS011;45231;44.826;20.312;2022-08-19T01:49:12;16.13;;;9.30;;
59424;SDS011;45231;44.826;20.312;2022-08-19T01:51:38;15.38;;;9.88;;
59424;SDS011;45231;44.826;20.312;2022-08-19T01:54:04;15.98;;;10.50;;
59424;SDS011;45231;44.826;20.312;2022-08-19T01:56:30;14.13;;;10.00;;
59424;SDS011;45231;44.826;20.312;2022-08-19T02:01:22;16.48;;;10.65;;
59424;SDS011;45231;44.826;20.312;2022-08-19T02:03:48;16.33;;;9.80;;
59424;SDS011;45231;44.826;20.312;2022-08-19T02:08:41;18.48;;;10.73;;
59424;SDS011;45231;44.826;20.312;2022-08-19T02:11:10;14.68;;;11.00;;
59424;SDS011;45231;44.826;20.312;2022-08-19T02:13:43;15.13;;;10.27;;
59424;SDS011;45231;44.826;20.312;2022-08-19T02:16:09;15.73;;;10.93;;
59424;SDS011;45231;44.826;20.312;2022-08-19T02:18:35;17.27;;;10.75;;
59424;SDS011;45231;44.826;20.312;2022-08-19T02:21:01;15.25;;;10.88;;
59424;SDS011;45231;44.826;20.312;2022-08-19T02:23:27;14.40;;;10.30;;
59424;SDS011;45231;44.826;20.312;2022-08-19T02:25:53;19.15;;;10.65;;
59424;SDS011;45231;44.826;20.312;2022-08-19T02:28:19;17.40;;;10.45;;
59424;SDS011;45231;44.826;20.312;2022-08-19T02:30:46;12.63;;;10.35;;
59424;SDS011;45231;44.826;20.312;2022-08-19T02:33:12;15.93;;;10.77;;
59424;SDS011;45231;44.826;20.312;2022-08-19T02:35:45;16.20;;;10.70;;
59424;SDS011;45231;44.826;20.312;2022-08-19T02:38:12;17.25;;;11.00;;
59424;SDS011;45231;44.826;20.312;2022-08-19T02:40:51;18.92;;;10.73;;
59424;SDS011;45231;44.826;20.312;2022-08-19T02:43:18;15.70;;;11.15;;
59424;SDS011;45231;44.826;20.312;2022-08-19T02:45:45;15.52;;;10.50;;
59424;SDS011;45231;44.826;20.312;2022-08-19T02:48:13;13.68;;;10.90;;
59424;SDS011;45231;44.826;20.312;2022-08-19T02:50:39;13.75;;;10.48;;
59424;SDS011;45231;44.826;20.312;2022-08-19T02:53:06;14.68;;;10.90;;
59424;SDS011;45231;44.826;20.312;2022-08-19T02:55:33;16.02;;;10.43;;
59424;SDS011;45231;44.826;20.312;2022-08-19T02:57:59;12.55;;;10.52;;
59424;SDS011;45231;44.826;20.312;2022-08-19T03:00:25;15.80;;;10.98;;
59424;SDS011;45231;44.826;20.312;2022-08-19T03:05:17;18.83;;;10.40;;
59424;SDS011;45231;44.826;20.312;2022-08-19T03:07:43;17.02;;;10.25;;
59424;SDS011;45231;44.826;20.312;2022-08-19T03:10:11;13.52;;;10.32;;
59424;SDS011;45231;44.826;20.312;2022-08-19T03:12:38;23.42;;;11.30;;
59424;SDS011;45231;44.826;20.312;2022-08-19T03:15:05;17.10;;;10.85;;
59424;SDS011;45231;44.826;20.312;2022-08-19T03:17:32;13.98;;;10.77;;
59424;SDS011;45231;44.826;20.312;2022-08-19T03:22:24;14.35;;;10.90;;
59424;SDS011;45231;44.826;20.312;2022-08-19T03:24:51;14.05;;;10.93;;
59424;SDS011;45231;44.826;20.312;2022-08-19T03:27:18;19.00;;;11.55;;
59424;SDS011;45231;44.826;20.312;2022-08-19T03:29:44;17.42;;;11.07;;
59424;SDS011;45231;44.826;20.312;2022-08-19T03:32:10;15.30;;;11.70;;
59424;SDS011;45231;44.826;20.312;2022-08-19T03:34:37;15.13;;;11.77;;
59424;SDS011;45231;44.826;20.312;2022-08-19T03:37:07;16.92;;;12.40;;
59424;SDS011;45231;44.826;20.312;2022-08-19T03:39:35;18.17;;;11.70;;
59424;SDS011;45231;44.826;20.312;2022-08-19T03:42:01;17.00;;;11.55;;
59424;SDS011;45231;44.826;20.312;2022-08-19T03:44:28;16.52;;;11.90;;
59424;SDS011;45231;44.826;20.312;2022-08-19T03:46:55;14.30;;;11.80;;
59424;SDS011;45231;44.826;20.312;2022-08-19T03:49:23;15.75;;;11.68;;
59424;SDS011;45231;44.826;20.312;2022-08-19T03:51:50;14.40;;;11.50;;
59424;SDS011;45231;44.826;20.312;2022-08-19T03:56:42;18.15;;;11.50;;
59424;SDS011;45231;44.826;20.312;2022-08-19T03:59:10;18.05;;;10.98;;
59424;SDS011;45231;44.826;20.312;2022-08-19T04:01:38;15.70;;;11.15;;
59424;SDS011;45231;44.826;20.312;2022-08-19T04:04:04;17.52;;;11.48;;
59424;SDS011;45231;44.826;20.312;2022-08-19T04:06:32;14.35;;;10.50;;
59424;SDS011;45231;44.826;20.312;2022-08-19T04:08:59;16.50;;;10.88;;
59424;SDS011;45231;44.826;20.312;2022-08-19T04:11:27;15.43;;;11.40;;
59424;SDS011;45231;44.826;20.312;2022-08-19T04:13:53;17.60;;;11.10;;
59424;SDS011;45231;44.826;20.312;2022-08-19T04:16:20;16.60;;;12.15;;
59424;SDS011;45231;44.826;20.312;2022-08-19T04:18:47;18.80;;;12.48;;
59424;SDS011;45231;44.826;20.312;2022-08-19T04:21:18;16.95;;;10.60;;
59424;SDS011;45231;44.826;20.312;2022-08-19T04:23:44;14.05;;;11.32;;
59424;SDS011;45231;44.826;20.312;2022-08-19T04:28:36;15.90;;;10.88;;
59424;SDS011;45231;44.826;20.312;2022-08-19T04:31:03;15.35;;;11.63;;
59424;SDS011;45231;44.826;20.312;2022-08-19T04:33:29;15.30;;;11.65;;
59424;SDS011;45231;44.826;20.312;2022-08-19T04:38:23;16.83;;;11.38;;
59424;SDS011;45231;44.826;20.312;2022-08-19T04:40:50;16.23;;;11.90;;
59424;SDS011;45231;44.826;20.312;2022-08-19T04:43:37;18.38;;;11.80;;
59424;SDS011;45231;44.826;20.312;2022-08-19T04:46:05;18.50;;;11.13;;
59424;SDS011;45231;44.826;20.312;2022-08-19T04:48:31;17.70;;;10.57;;
59424;SDS011;45231;44.826;20.312;2022-08-19T04:50:57;18.50;;;11.40;;
59424;SDS011;45231;44.826;20.312;2022-08-19T04:53:25;14.95;;;10.65;;
59424;SDS011;45231;44.826;20.312;2022-08-19T04:55:53;15.20;;;10.02;;
59424;SDS011;45231;44.826;20.312;2022-08-19T05:00:45;13.38;;;9.68;;
59424;SDS011;45231;44.826;20.312;2022-08-19T05:03:11;15.50;;;9.15;;
59424;SDS011;45231;44.826;20.312;2022-08-19T05:05:41;13.73;;;8.60;;
59424;SDS011;45231;44.826;20.312;2022-08-19T05:08:07;15.00;;;9.07;;
59424;SDS011;45231;44.826;20.312;2022-08-19T05:10:39;12.25;;;8.15;;
59424;SDS011;45231;44.826;20.312;2022-08-19T05:13:05;15.52;;;8.90;;
59424;SDS011;45231;44.826;20.312;2022-08-19T05:15:34;17.98;;;8.68;;
59424;SDS011;45231;44.826;20.312;2022-08-19T05:18:00;13.77;;;8.52;;
59424;SDS011;45231;44.826;20.312;2022-08-19T05:20:45;14.45;;;8.65;;
59424;SDS011;45231;44.826;20.312;2022-08-19T05:23:30;16.42;;;9.07;;
59424;SDS011;45231;44.826;20.312;2022-08-19T05:28:22;16.05;;;9.40;;
59424;SDS011;45231;44.826;20.312;2022-08-19T05:33:15;13.95;;;7.97;;
59424;SDS011;45231;44.826;20.312;2022-08-19T05:35:42;13.43;;;8.45;;
59424;SDS011;45231;44.826;20.312;2022-08-19T05:38:08;17.23;;;8.73;;
59424;SDS011;45231;44.826;20.312;2022-08-19T05:40:36;12.90;;;8.27;;
59424;SDS011;45231;44.826;20.312;2022-08-19T05:43:02;18.73;;;8.90;;
59424;SDS011;45231;44.826;20.312;2022-08-19T05:45:29;13.05;;;8.40;;
59424;SDS011;45231;44.826;20.312;2022-08-19T05:47:55;15.23;;;7.90;;
59424;SDS011;45231;44.826;20.312;2022-08-19T05:50:21;13.70;;;7.47;;
59424;SDS011;45231;44.826;20.312;2022-08-19T05:52:47;13.13;;;7.22;;
59424;SDS011;45231;44.826;20.312;2022-08-19T05:55:13;15.00;;;7.65;;
59424;SDS011;45231;44.826;20.312;2022-08-19T05:57:39;16.92;;;7.90;;
59424;SDS011;45231;44.826;20.312;2022-08-19T06:00:05;11.45;;;7.47;;
59424;SDS011;45231;44.826;20.312;2022-08-19T06:02:36;17.33;;;6.93;;
59424;SDS011;45231;44.826;20.312;2022-08-19T06:05:03;12.43;;;6.43;;
59424;SDS011;45231;44.826;20.312;2022-08-19T06:07:30;12.07;;;6.60;;
59424;SDS011;45231;44.826;20.312;2022-08-19T06:09:57;10.75;;;6.20;;
59424;SDS011;45231;44.826;20.312;2022-08-19T06:12:23;14.85;;;6.68;;
59424;SDS011;45231;44.826;20.312;2022-08-19T06:14:54;17.48;;;6.03;;
59424;SDS011;45231;44.826;20.312;2022-08-19T06:17:20;14.93;;;6.28;;
59424;SDS011;45231;44.826;20.312;2022-08-19T06:19:50;13.90;;;6.43;;
59424;SDS011;45231;44.826;20.312;2022-08-19T06:22:17;13.05;;;5.88;;
59424;SDS011;45231;44.826;20.312;2022-08-19T06:24:43;11.88;;;5.53;;
59424;SDS011;45231;44.826;20.312;2022-08-19T06:27:09;11.10;;;6.05;;
59424;SDS011;45231;44.826;20.312;2022-08-19T06:29:35;11.93;;;5.75;;
59424;SDS011;45231;44.826;20.312;2022-08-19T06:32:02;10.45;;;5.45;;
59424;SDS011;45231;44.826;20.312;2022-08-19T06:34:29;14.07;;;5.38;;
59424;SDS011;45231;44.826;20.312;2022-08-19T06:36:57;12.45;;;4.97;;
59424;SDS011;45231;44.826;20.312;2022-08-19T06:39:27;12.75;;;6.32;;
59424;SDS011;45231;44.826;20.312;2022-08-19T06:41:55;10.60;;;5.95;;
59424;SDS011;45231;44.826;20.312;2022-08-19T06:44:22;14.23;;;5.38;;
59424;SDS011;45231;44.826;20.312;2022-08-19T06:46:50;12.20;;;6.35;;
59424;SDS011;45231;44.826;20.312;2022-08-19T06:49:17;19.27;;;5.47;;
59424;SDS011;45231;44.826;20.312;2022-08-19T06:51:43;9.50;;;5.03;;
59424;SDS011;45231;44.826;20.312;2022-08-19T06:54:12;14.73;;;5.47;;
59424;SDS011;45231;44.826;20.312;2022-08-19T06:56:39;10.88;;;4.90;;
59424;SDS011;45231;44.826;20.312;2022-08-19T06:59:11;13.43;;;5.57;;
59424;SDS011;45231;44.826;20.312;2022-08-19T07:01:43;15.63;;;5.32;;
59424;SDS011;45231;44.826;20.312;2022-08-19T07:04:11;12.68;;;5.32;;
59424;SDS011;45231;44.826;20.312;2022-08-19T07:06:37;14.77;;;5.28;;
59424;SDS011;45231;44.826;20.312;2022-08-19T07:09:04;14.50;;;5.03;;
59424;SDS011;45231;44.826;20.312;2022-08-19T07:11:31;14.80;;;5.25;;
59424;SDS011;45231;44.826;20.312;2022-08-19T07:13:57;10.90;;;5.63;;
59424;SDS011;45231;44.826;20.312;2022-08-19T07:16:23;14.60;;;5.60;;
59424;SDS011;45231;44.826;20.312;2022-08-19T07:18:50;14.30;;;5.00;;
59424;SDS011;45231;44.826;20.312;2022-08-19T07:21:26;12.80;;;5.43;;
59424;SDS011;45231;44.826;20.312;2022-08-19T07:23:54;16.40;;;5.45;;
59424;SDS011;45231;44.826;20.312;2022-08-19T07:26:26;11.48;;;4.78;;
59424;SDS011;45231;44.826;20.312;2022-08-19T07:28:52;12.95;;;5.10;;
59424;SDS011;45231;44.826;20.312;2022-08-19T07:31:20;11.23;;;4.93;;
59424;SDS011;45231;44.826;20.312;2022-08-19T07:33:47;11.32;;;5.30;;
59424;SDS011;45231;44.826;20.312;2022-08-19T07:36:14;9.77;;;5.00;;
59424;SDS011;45231;44.826;20.312;2022-08-19T07:38:43;15.68;;;5.38;;
59424;SDS011;45231;44.826;20.312;2022-08-19T07:41:10;12.65;;;5.07;;
59424;SDS011;45231;44.826;20.312;2022-08-19T07:43:37;12.75;;;5.15;;
59424;SDS011;45231;44.826;20.312;2022-08-19T07:46:03;9.15;;;4.65;;
59424;SDS011;45231;44.826;20.312;2022-08-19T07:48:29;11.32;;;4.90;;
59424;SDS011;45231;44.826;20.312;2022-08-19T07:50:56;10.40;;;5.10;;
59424;SDS011;45231;44.826;20.312;2022-08-19T07:53:24;11.52;;;5.13;;
59424;SDS011;45231;44.826;20.312;2022-08-19T07:55:50;9.98;;;4.35;;
59424;SDS011;45231;44.826;20.312;2022-08-19T07:58:18;16.60;;;4.80;;
59424;SDS011;45231;44.826;20.312;2022-08-19T08:00:46;11.63;;;4.32;;
59424;SDS011;45231;44.826;20.312;2022-08-19T08:03:13;8.48;;;4.15;;
59424;SDS011;45231;44.826;20.312;2022-08-19T08:05:40;12.57;;;4.40;;
59424;SDS011;45231;44.826;20.312;2022-08-19T08:08:25;8.98;;;4.40;;
59424;SDS011;45231;44.826;20.312;2022-08-19T08:11:11;26.85;;;5.88;;
59424;SDS011;45231;44.826;20.312;2022-08-19T08:13:37;8.90;;;4.50;;
59424;SDS011;45231;44.826;20.312;2022-08-19T08:16:06;11.40;;;3.55;;
59424;SDS011;45231;44.826;20.312;2022-08-19T08:18:32;12.00;;;3.72;;
59424;SDS011;45231;44.826;20.312;2022-08-19T08:21:06;10.65;;;3.55;;
59424;SDS011;45231;44.826;20.312;2022-08-19T08:23:32;11.90;;;3.53;;
59424;SDS011;45231;44.826;20.312;2022-08-19T08:25:58;14.20;;;4.13;;
59424;SDS011;45231;44.826;20.312;2022-08-19T08:28:26;14.20;;;3.97;;
59424;SDS011;45231;44.826;20.312;2022-08-19T08:30:55;8.02;;;3.80;;
59424;SDS011;45231;44.826;20.312;2022-08-19T08:33:21;8.65;;;3.75;;
59424;SDS011;45231;44.826;20.312;2022-08-19T08:35:48;8.57;;;3.97;;
59424;SDS011;45231;44.826;20.312;2022-08-19T08:38:14;11.40;;;3.97;;
59424;SDS011;45231;44.826;20.312;2022-08-19T08:40:50;10.82;;;4.35;;
59424;SDS011;45231;44.826;20.312;2022-08-19T08:45:52;12.07;;;3.97;;
59424;SDS011;45231;44.826;20.312;2022-08-19T08:51:05;7.90;;;3.80;;
59424;SDS011;45231;44.826;20.312;2022-08-19T08:53:33;9.70;;;4.35;;
59424;SDS011;45231;44.826;20.312;2022-08-19T08:56:01;8.20;;;3.58;;
59424;SDS011;45231;44.826;20.312;2022-08-19T08:58:42;7.93;;;3.70;;
59424;SDS011;45231;44.826;20.312;2022-08-19T09:01:12;8.23;;;3.30;;
59424;SDS011;45231;44.826;20.312;2022-08-19T09:03:39;11.70;;;3.90;;
59424;SDS011;45231;44.826;20.312;2022-08-19T09:16:40;10.13;;;3.63;;
59424;SDS011;45231;44.826;20.312;2022-08-19T09:19:06;8.50;;;3.45;;
59424;SDS011;45231;44.826;20.312;2022-08-19T09:21:33;11.05;;;3.60;;
59424;SDS011;45231;44.826;20.312;2022-08-19T09:24:02;9.98;;;3.75;;
59424;SDS011;45231;44.826;20.312;2022-08-19T09:26:29;12.77;;;4.03;;
59424;SDS011;45231;44.826;20.312;2022-08-19T09:28:57;11.68;;;4.18;;
59424;SDS011;45231;44.826;20.312;2022-08-19T09:31:25;10.68;;;3.83;;
59424;SDS011;45231;44.826;20.312;2022-08-19T09:33:52;7.55;;;3.90;;
59424;SDS011;45231;44.826;20.312;2022-08-19T09:36:22;8.95;;;3.25;;
59424;SDS011;45231;44.826;20.312;2022-08-19T09:38:49;9.63;;;3.90;;
59424;SDS011;45231;44.826;20.312;2022-08-19T09:41:20;8.10;;;3.50;;
59424;SDS011;45231;44.826;20.312;2022-08-19T09:43:47;7.75;;;3.58;;
59424;SDS011;45231;44.826;20.312;2022-08-19T09:46:18;9.57;;;3.40;;
59424;SDS011;45231;44.826;20.312;2022-08-19T09:48:46;10.98;;;3.58;;
59424;SDS011;45231;44.826;20.312;2022-08-19T09:51:15;11.77;;;3.17;;
59424;SDS011;45231;44.826;20.312;2022-08-19T09:53:42;9.80;;;3.08;;
59424;SDS011;45231;44.826;20.312;2022-08-19T09:56:08;9.13;;;3.55;;
59424;SDS011;45231;44.826;20.312;2022-08-19T09:58:35;8.77;;;3.53;;
59424;SDS011;45231;44.826;20.312;2022-08-19T10:01:02;8.45;;;3.40;;
59424;SDS011;45231;44.826;20.312;2022-08-19T10:03:29;8.20;;;2.90;;
59424;SDS011;45231;44.826;20.312;2022-08-19T10:05:57;8.48;;;3.40;;
59424;SDS011;45231;44.826;20.312;2022-08-19T10:08:27;9.73;;;3.90;;
59424;SDS011;45231;44.826;20.312;2022-08-19T10:10:54;8.70;;;3.22;;
59424;SDS011;45231;44.826;20.312;2022-08-19T10:13:22;11.77;;;3.75;;
59424;SDS011;45231;44.826;20.312;2022-08-19T10:15:50;9.15;;;4.03;;
59424;SDS011;45231;44.826;20.312;2022-08-19T10:18:16;9.20;;;4.07;;
59424;SDS011;45231;44.826;20.312;2022-08-19T10:20:43;9.02;;;4.07;;
59424;SDS011;45231;44.826;20.312;2022-08-19T10:23:10;8.57;;;3.50;;
59424;SDS011;45231;44.826;20.312;2022-08-19T10:25:36;7.40;;;4.00;;
59424;SDS011;45231;44.826;20.312;2022-08-19T10:28:02;10.73;;;3.78;;
59424;SDS011;45231;44.826;20.312;2022-08-19T10:30:30;10.38;;;3.40;;
59424;SDS011;45231;44.826;20.312;2022-08-19T10:32:57;8.45;;;3.92;;
59424;SDS011;45231;44.826;20.312;2022-08-19T10:35:23;7.60;;;3.38;;
59424;SDS011;45231;44.826;20.312;2022-08-19T10:37:54;8.20;;;3.65;;
59424;SDS011;45231;44.826;20.312;2022-08-19T10:40:24;7.13;;;3.65;;
59424;SDS011;45231;44.826;20.312;2022-08-19T10:42:50;6.72;;;3.90;;
59424;SDS011;45231;44.826;20.312;2022-08-19T10:45:16;9.88;;;3.40;;
59424;SDS011;45231;44.826;20.312;2022-08-19T10:47:42;10.30;;;3.67;;
59424;SDS011;45231;44.826;20.312;2022-08-19T10:50:08;11.00;;;3.85;;
59424;SDS011;45231;44.826;20.312;2022-08-19T10:52:53;7.38;;;3.55;;
59424;SDS011;45231;44.826;20.312;2022-08-19T10:55:20;12.25;;;4.00;;
59424;SDS011;45231;44.826;20.312;2022-08-19T10:58:12;8.60;;;3.78;;
59424;SDS011;45231;44.826;20.312;2022-08-19T11:00:39;10.75;;;3.70;;
59424;SDS011;45231;44.826;20.312;2022-08-19T11:03:05;7.22;;;3.78;;
59424;SDS011;45231;44.826;20.312;2022-08-19T11:05:31;8.82;;;3.83;;
59424;SDS011;45231;44.826;20.312;2022-08-19T11:07:57;9.18;;;3.40;;
59424;SDS011;45231;44.826;20.312;2022-08-19T11:10:23;6.85;;;3.45;;
59424;SDS011;45231;44.826;20.312;2022-08-19T11:12:49;10.50;;;3.80;;
59424;SDS011;45231;44.826;20.312;2022-08-19T11:15:19;8.63;;;3.53;;
59424;SDS011;45231;44.826;20.312;2022-08-19T11:17:46;8.38;;;3.25;;
59424;SDS011;45231;44.826;20.312;2022-08-19T11:20:12;12.85;;;3.17;;
59424;SDS011;45231;44.826;20.312;2022-08-19T11:22:40;10.48;;;3.15;;
59424;SDS011;45231;44.826;20.312;2022-08-19T11:25:06;8.77;;;2.83;;
59424;SDS011;45231;44.826;20.312;2022-08-19T11:27:33;8.73;;;3.13;;
59424;SDS011;45231;44.826;20.312;2022-08-19T11:29:59;9.40;;;2.72;;
59424;SDS011;45231;44.826;20.312;2022-08-19T11:32:25;14.13;;;3.13;;
59424;SDS011;45231;44.826;20.312;2022-08-19T11:34:51;7.93;;;3.00;;
59424;SDS011;45231;44.826;20.312;2022-08-19T11:37:17;10.90;;;3.13;;
59424;SDS011;45231;44.826;20.312;2022-08-19T11:39:44;10.10;;;3.00;;
59424;SDS011;45231;44.826;20.312;2022-08-19T11:42:11;7.80;;;2.97;;
59424;SDS011;45231;44.826;20.312;2022-08-19T11:44:55;12.35;;;3.63;;
59424;SDS011;45231;44.826;20.312;2022-08-19T11:47:21;11.32;;;2.97;;
59424;SDS011;45231;44.826;20.312;2022-08-19T11:49:49;12.15;;;3.38;;
59424;SDS011;45231;44.826;20.312;2022-08-19T11:52:16;7.72;;;3.13;;
59424;SDS011;45231;44.826;20.312;2022-08-19T11:54:42;12.02;;;3.10;;
59424;SDS011;45231;44.826;20.312;2022-08-19T11:57:08;10.10;;;2.75;;
59424;SDS011;45231;44.826;20.312;2022-08-19T11:59:34;7.40;;;2.50;;
59424;SDS011;45231;44.826;20.312;2022-08-19T12:02:00;14.68;;;3.40;;
59424;SDS011;45231;44.826;20.312;2022-08-19T12:04:26;8.10;;;2.42;;
59424;SDS011;45231;44.826;20.312;2022-08-19T12:06:52;14.57;;;2.92;;
59424;SDS011;45231;44.826;20.312;2022-08-19T12:09:18;11.20;;;2.88;;
59424;SDS011;45231;44.826;20.312;2022-08-19T12:11:44;12.75;;;3.08;;
59424;SDS011;45231;44.826;20.312;2022-08-19T12:14:12;14.20;;;3.22;;
59424;SDS011;45231;44.826;20.312;2022-08-19T12:16:39;11.25;;;3.00;;
59424;SDS011;45231;44.826;20.312;2022-08-19T12:19:06;7.35;;;2.83;;
59424;SDS011;45231;44.826;20.312;2022-08-19T12:21:34;8.82;;;2.80;;
59424;SDS011;45231;44.826;20.312;2022-08-19T12:24:01;11.30;;;3.33;;
59424;SDS011;45231;44.826;20.312;2022-08-19T12:26:27;12.43;;;3.00;;
59424;SDS011;45231;44.826;20.312;2022-08-19T12:28:54;9.90;;;3.30;;
59424;SDS011;45231;44.826;20.312;2022-08-19T12:31:20;10.60;;;3.15;;
59424;SDS011;45231;44.826;20.312;2022-08-19T12:33:46;14.48;;;3.30;;
59424;SDS011;45231;44.826;20.312;2022-08-19T12:36:14;15.07;;;3.25;;
59424;SDS011;45231;44.826;20.312;2022-08-19T12:38:41;9.88;;;2.78;;
59424;SDS011;45231;44.826;20.312;2022-08-19T12:41:09;15.68;;;3.30;;
59424;SDS011;45231;44.826;20.312;2022-08-19T12:43:36;10.48;;;3.08;;
59424;SDS011;45231;44.826;20.312;2022-08-19T12:46:05;12.90;;;3.35;;
59424;SDS011;45231;44.826;20.312;2022-08-19T12:48:32;10.38;;;3.22;;
59424;SDS011;45231;44.826;20.312;2022-08-19T12:50:58;13.93;;;3.00;;
59424;SDS011;45231;44.826;20.312;2022-08-19T12:53:24;13.85;;;3.63;;
59424;SDS011;45231;44.826;20.312;2022-08-19T12:55:57;13.38;;;3.03;;
59424;SDS011;45231;44.826;20.312;2022-08-19T12:58:25;13.40;;;3.08;;
59424;SDS011;45231;44.826;20.312;2022-08-19T13:00:51;19.88;;;3.35;;
59424;SDS011;45231;44.826;20.312;2022-08-19T13:03:17;10.50;;;3.08;;
59424;SDS011;45231;44.826;20.312;2022-08-19T13:05:43;10.68;;;3.00;;
59424;SDS011;45231;44.826;20.312;2022-08-19T13:08:09;12.57;;;3.33;;
59424;SDS011;45231;44.826;20.312;2022-08-19T13:10:36;9.80;;;3.20;;
59424;SDS011;45231;44.826;20.312;2022-08-19T13:13:04;13.13;;;2.97;;
59424;SDS011;45231;44.826;20.312;2022-08-19T13:15:35;12.45;;;3.78;;
59424;SDS011;45231;44.826;20.312;2022-08-19T13:18:01;13.55;;;3.45;;
59424;SDS011;45231;44.826;20.312;2022-08-19T13:20:28;11.90;;;2.88;;
59424;SDS011;45231;44.826;20.312;2022-08-19T13:22:54;9.07;;;3.50;;
59424;SDS011;45231;44.826;20.312;2022-08-19T13:25:22;11.38;;;3.38;;
59424;SDS011;45231;44.826;20.312;2022-08-19T13:27:48;12.63;;;3.25;;
59424;SDS011;45231;44.826;20.312;2022-08-19T13:30:16;11.25;;;3.00;;
59424;SDS011;45231;44.826;20.312;2022-08-19T13:33:01;10.85;;;3.60;;
59424;SDS011;45231;44.826;20.312;2022-08-19T13:35:37;12.18;;;3.63;;
59424;SDS011;45231;44.826;20.312;2022-08-19T13:38:03;15.02;;;3.80;;
59424;SDS011;45231;44.826;20.312;2022-08-19T13:40:30;10.75;;;3.25;;
59424;SDS011;45231;44.826;20.312;2022-08-19T13:42:59;13.18;;;3.38;;
59424;SDS011;45231;44.826;20.312;2022-08-19T13:45:25;10.35;;;3.22;;
59424;SDS011;45231;44.826;20.312;2022-08-19T13:47:52;12.40;;;3.10;;
59424;SDS011;45231;44.826;20.312;2022-08-19T13:50:20;9.73;;;3.38;;
59424;SDS011;45231;44.826;20.312;2022-08-19T13:52:46;10.35;;;3.13;;
59424;SDS011;45231;44.826;20.312;2022-08-19T13:55:13;8.77;;;3.28;;
59424;SDS011;45231;44.826;20.312;2022-08-19T13:57:39;14.52;;;3.85;;
59424;SDS011;45231;44.826;20.312;2022-08-19T14:00:09;11.52;;;3.47;;
59424;SDS011;45231;44.826;20.312;2022-08-19T14:02:36;14.25;;;3.78;;
59424;SDS011;45231;44.826;20.312;2022-08-19T14:05:03;15.18;;;3.63;;
59424;SDS011;45231;44.826;20.312;2022-08-19T14:07:29;10.52;;;3.45;;
59424;SDS011;45231;44.826;20.312;2022-08-19T14:09:56;11.98;;;3.65;;
59424;SDS011;45231;44.826;20.312;2022-08-19T14:12:22;12.52;;;3.40;;
59424;SDS011;45231;44.826;20.312;2022-08-19T14:14:48;9.38;;;3.38;;
59424;SDS011;45231;44.826;20.312;2022-08-19T14:17:14;12.55;;;3.55;;
59424;SDS011;45231;44.826;20.312;2022-08-19T14:19:41;9.48;;;3.53;;
59424;SDS011;45231;44.826;20.312;2022-08-19T14:22:07;11.63;;;3.88;;
59424;SDS011;45231;44.826;20.312;2022-08-19T14:24:33;11.32;;;3.53;;
59424;SDS011;45231;44.826;20.312;2022-08-19T14:26:59;11.02;;;3.70;;
59424;SDS011;45231;44.826;20.312;2022-08-19T14:29:25;9.20;;;3.40;;
59424;SDS011;45231;44.826;20.312;2022-08-19T14:31:54;10.65;;;4.03;;
59424;SDS011;45231;44.826;20.312;2022-08-19T14:34:24;9.93;;;3.83;;
59424;SDS011;45231;44.826;20.312;2022-08-19T14:36:51;8.43;;;3.42;;
59424;SDS011;45231;44.826;20.312;2022-08-19T14:39:17;12.88;;;3.60;;
59424;SDS011;45231;44.826;20.312;2022-08-19T14:41:43;8.40;;;3.35;;
59424;SDS011;45231;44.826;20.312;2022-08-19T14:44:10;12.20;;;4.00;;
59424;SDS011;45231;44.826;20.312;2022-08-19T14:46:37;11.85;;;3.50;;
59424;SDS011;45231;44.826;20.312;2022-08-19T14:49:04;11.93;;;3.38;;
59424;SDS011;45231;44.826;20.312;2022-08-19T14:51:30;11.60;;;3.42;;
59424;SDS011;45231;44.826;20.312;2022-08-19T14:53:56;10.80;;;3.50;;
59424;SDS011;45231;44.826;20.312;2022-08-19T14:56:24;10.35;;;3.63;;
59424;SDS011;45231;44.826;20.312;2022-08-19T14:58:50;13.43;;;3.35;;
59424;SDS011;45231;44.826;20.312;2022-08-19T15:01:16;12.07;;;3.38;;
59424;SDS011;45231;44.826;20.312;2022-08-19T15:03:45;12.10;;;3.22;;
59424;SDS011;45231;44.826;20.312;2022-08-19T15:06:11;12.57;;;3.33;;
59424;SDS011;45231;44.826;20.312;2022-08-19T15:08:38;7.97;;;3.33;;
59424;SDS011;45231;44.826;20.312;2022-08-19T15:11:12;8.77;;;3.53;;